createdAt,value
2019-04-10T00:01:01.482Z,10.18
2019-04-10T00:03:37.865Z,10.23
2019-04-10T00:06:06.955Z,10.90
2019-04-10T00:08:38.703Z,11.08
2019-04-10T00:11:12.283Z,10.20
2019-04-10T00:13:45.039Z,11.17
2019-04-10T00:16:18.289Z,10.43
2019-04-10T00:18:50.798Z,9.70
2019-04-10T00:21:23.494Z,11.03
2019-04-10T00:23:55.544Z,9.90
2019-04-10T00:26:27.858Z,8.13
2019-04-10T00:29:00.233Z,10.45
2019-04-10T00:31:32.233Z,12.15
2019-04-10T00:34:03.899Z,9.58
2019-04-10T00:36:35.328Z,11.53
2019-04-10T00:39:09.105Z,9.30
2019-04-10T00:41:40.735Z,10.50
2019-04-10T00:44:13.313Z,11.93
2019-04-10T00:46:45.047Z,10.58
2019-04-10T00:49:17.590Z,10.98
2019-04-10T00:51:49.973Z,10.70
2019-04-10T00:54:21.735Z,11.03
2019-04-10T00:56:53.505Z,9.38
2019-04-10T00:59:24.900Z,9.58
2019-04-10T01:01:56.353Z,9.68
2019-04-10T01:04:28.693Z,8.65
2019-04-10T01:07:00.252Z,8.00
2019-04-10T01:09:31.695Z,9.00
2019-04-10T01:12:05.727Z,9.85
2019-04-10T01:14:40.195Z,8.88
2019-04-10T01:17:11.826Z,8.88
2019-04-10T01:19:43.966Z,9.73
2019-04-10T01:22:16.783Z,10.43
2019-04-10T01:24:48.891Z,11.55
2019-04-10T01:27:20.602Z,12.15
2019-04-10T01:29:52.265Z,11.08
2019-04-10T01:32:23.938Z,10.70
2019-04-10T01:34:55.947Z,11.83
2019-04-10T01:37:27.706Z,11.12
2019-04-10T01:40:00.830Z,11.35
2019-04-10T01:42:32.447Z,11.08
2019-04-10T01:45:06.100Z,11.18
2019-04-10T01:47:37.762Z,11.05
2019-04-10T01:50:10.403Z,10.43
2019-04-10T01:52:42.158Z,9.43
2019-04-10T01:55:21.372Z,5.67
2019-04-10T01:57:48.142Z,7.72
2019-04-10T02:00:22.251Z,9.65
2019-04-10T02:02:54.022Z,9.48
2019-04-10T02:05:25.524Z,10.85
2019-04-10T02:08:05.307Z,9.20
2019-04-10T02:10:30.340Z,8.13
2019-04-10T02:13:01.867Z,7.40
2019-04-10T02:15:34.280Z,7.45
2019-04-10T02:18:05.871Z,8.48
2019-04-10T02:20:37.459Z,8.20
2019-04-10T02:23:09.981Z,9.65
2019-04-10T02:25:41.781Z,9.28
2019-04-10T02:28:13.283Z,10.50
2019-04-10T02:30:45.998Z,9.00
2019-04-10T02:33:17.951Z,10.03
2019-04-10T02:35:49.405Z,11.00
2019-04-10T02:38:37.442Z,10.50
2019-04-10T02:40:55.564Z,8.25
2019-04-10T02:43:27.440Z,5.35
2019-04-10T02:46:00.031Z,11.25
2019-04-10T02:48:33.770Z,11.40
2019-04-10T02:51:06.166Z,12.10
2019-04-10T02:53:39.334Z,12.18
2019-04-10T02:56:11.819Z,12.45
2019-04-10T02:58:44.536Z,12.33
2019-04-10T03:01:17.401Z,11.93
2019-04-10T03:03:50.233Z,12.53
2019-04-10T03:06:22.861Z,8.05
2019-04-10T03:09:07.602Z,9.38
2019-04-10T03:11:28.105Z,11.18
2019-04-10T03:14:01.366Z,10.48
2019-04-10T03:16:32.825Z,11.60
2019-04-10T03:19:05.331Z,8.18
2019-04-10T03:21:37.435Z,8.08
2019-04-10T03:24:09.719Z,6.62
2019-04-10T03:26:41.612Z,10.50
2019-04-10T03:29:13.698Z,9.80
2019-04-10T03:31:47.471Z,7.20
2019-04-10T03:34:33.187Z,6.65
2019-04-10T03:37:02.898Z,7.10
2019-04-10T03:39:35.978Z,6.67
2019-04-10T03:42:08.531Z,5.08
2019-04-10T03:44:40.877Z,6.83
2019-04-10T03:47:13.317Z,7.58
2019-04-10T03:49:54.075Z,7.80
2019-04-10T03:52:27.441Z,8.85
2019-04-10T03:54:59.049Z,8.63
2019-04-10T03:57:30.909Z,8.23
2019-04-10T04:00:03.665Z,7.58
2019-04-10T04:02:37.865Z,6.55
2019-04-10T04:05:10.649Z,11.75
2019-04-10T04:07:43.523Z,12.20
2019-04-10T04:10:16.250Z,10.60
2019-04-10T04:12:49.154Z,11.95
2019-04-10T04:15:21.967Z,12.37
2019-04-10T04:17:54.722Z,12.10
2019-04-10T04:20:28.680Z,14.15
2019-04-10T04:23:01.355Z,12.53
2019-04-10T04:25:33.251Z,13.30
2019-04-10T04:28:04.909Z,14.28
2019-04-10T04:30:36.629Z,14.30
2019-04-10T04:33:09.492Z,14.30
2019-04-10T04:35:42.666Z,14.35
2019-04-10T04:38:16.196Z,15.23
2019-04-10T04:40:48.368Z,13.38
2019-04-10T04:43:21.619Z,15.10
2019-04-10T04:45:53.245Z,11.20
2019-04-10T04:48:24.824Z,13.32
2019-04-10T04:50:56.834Z,14.13
2019-04-10T04:53:28.402Z,13.50
2019-04-10T04:56:00.005Z,12.63
2019-04-10T04:58:31.512Z,13.95
2019-04-10T05:01:04.232Z,11.78
2019-04-10T05:03:36.096Z,12.55
2019-04-10T05:06:09.222Z,12.75
2019-04-10T05:08:41.976Z,10.30
2019-04-10T05:11:13.966Z,12.07
2019-04-10T05:13:45.567Z,12.85
2019-04-10T05:16:18.670Z,12.68
2019-04-10T05:18:50.531Z,11.35
2019-04-10T05:21:23.173Z,11.48
2019-04-10T05:23:55.441Z,11.70
2019-04-10T05:26:27.804Z,12.65
2019-04-10T05:29:02.677Z,11.30
2019-04-10T05:31:34.425Z,5.78
2019-04-10T05:34:06.178Z,12.07
2019-04-10T05:36:37.830Z,10.50
2019-04-10T05:39:10.648Z,10.90
2019-04-10T05:41:42.153Z,11.35
2019-04-10T05:44:13.809Z,10.48
2019-04-10T05:46:47.597Z,7.15
2019-04-10T05:49:20.317Z,9.93
2019-04-10T05:51:52.119Z,10.03
2019-04-10T05:54:24.645Z,11.43
2019-04-10T05:56:56.498Z,9.38
2019-04-10T05:59:28.212Z,10.25
2019-04-10T06:02:01.011Z,5.78
2019-04-10T06:04:33.898Z,9.93
2019-04-10T06:07:05.416Z,10.90
2019-04-10T06:09:38.593Z,8.68
2019-04-10T06:12:10.378Z,11.35
2019-04-10T06:14:42.115Z,10.38
2019-04-10T06:17:14.170Z,8.73
2019-04-10T06:19:46.847Z,10.00
2019-04-10T06:22:18.819Z,10.55
2019-04-10T06:24:52.209Z,7.10
2019-04-10T06:27:24.194Z,9.08
2019-04-10T06:29:57.314Z,10.00
2019-04-10T06:32:29.583Z,11.63
2019-04-10T06:35:01.910Z,11.18
2019-04-10T06:37:34.526Z,11.53
2019-04-10T06:40:14.302Z,9.40
2019-04-10T06:42:48.306Z,9.13
2019-04-10T06:45:13.495Z,9.08
2019-04-10T06:47:45.002Z,9.75
2019-04-10T06:50:16.925Z,9.48
2019-04-10T06:52:49.278Z,9.18
2019-04-10T06:55:21.639Z,9.35
2019-04-10T06:57:56.303Z,9.03
2019-04-10T07:00:26.707Z,9.70
2019-04-10T07:02:58.874Z,10.18
2019-04-10T07:05:37.953Z,7.85
2019-04-10T07:08:12.554Z,8.28
2019-04-10T07:10:48.274Z,9.05
2019-04-10T07:13:11.857Z,9.03
2019-04-10T07:15:45.140Z,7.87
2019-04-10T07:18:20.305Z,9.50
2019-04-10T07:20:51.093Z,9.28
2019-04-10T07:23:27.471Z,8.55
2019-04-10T07:25:56.376Z,7.10
2019-04-10T07:28:28.123Z,7.83
2019-04-10T07:31:04.981Z,7.42
2019-04-10T07:33:34.943Z,8.53
2019-04-10T07:36:11.227Z,7.30
2019-04-10T07:38:41.404Z,7.17
2019-04-10T07:41:20.113Z,7.92
2019-04-10T07:43:52.436Z,5.87
2019-04-10T07:46:20.408Z,7.83
2019-04-10T07:48:52.484Z,8.00
2019-04-10T07:51:24.309Z,7.37
2019-04-10T07:53:55.706Z,7.62
2019-04-10T07:56:27.527Z,8.28
2019-04-10T07:59:02.683Z,6.85
2019-04-10T08:01:35.453Z,8.15
2019-04-10T08:04:08.239Z,8.20
2019-04-10T08:06:40.027Z,8.75
2019-04-10T08:09:12.438Z,8.88
2019-04-10T08:11:44.822Z,7.85
2019-04-10T08:14:16.924Z,8.65
2019-04-10T08:16:49.790Z,9.53
2019-04-10T08:19:21.267Z,7.80
2019-04-10T08:21:54.887Z,9.28
2019-04-10T08:24:26.701Z,9.83
2019-04-10T08:26:58.180Z,10.58
2019-04-10T08:29:30.261Z,7.83
2019-04-10T08:32:01.783Z,9.00
2019-04-10T08:34:33.608Z,9.70
2019-04-10T08:37:05.154Z,9.13
2019-04-10T08:39:43.001Z,8.20
2019-04-10T08:42:12.689Z,7.73
2019-04-10T08:44:44.551Z,8.03
2019-04-10T08:47:17.073Z,9.50
2019-04-10T08:49:50.414Z,7.83
2019-04-10T08:52:22.104Z,7.58
2019-04-10T08:54:53.696Z,7.00
2019-04-10T08:57:25.644Z,7.78
2019-04-10T08:59:58.309Z,7.90
2019-04-10T09:02:30.393Z,6.65
2019-04-10T09:05:03.519Z,7.33
2019-04-10T09:07:35.911Z,6.85
2019-04-10T09:10:08.202Z,6.50
2019-04-10T09:12:41.046Z,6.60
2019-04-10T09:15:12.573Z,5.25
2019-04-10T09:17:44.130Z,6.62
2019-04-10T09:20:16.349Z,6.33
2019-04-10T09:23:10.726Z,7.30
2019-04-10T09:25:22.929Z,7.58
2019-04-10T09:27:55.896Z,6.92
2019-04-10T09:30:27.378Z,6.95
2019-04-10T09:32:58.992Z,6.55
2019-04-10T09:35:33.157Z,6.22
2019-04-10T09:38:04.907Z,7.10
2019-04-10T09:40:36.447Z,6.85
2019-04-10T09:43:09.232Z,6.85
2019-04-10T09:45:41.628Z,6.25
2019-04-10T09:48:13.169Z,7.30
2019-04-10T09:50:45.876Z,6.67
2019-04-10T09:53:17.599Z,6.95
2019-04-10T09:55:50.204Z,6.85
2019-04-10T09:58:23.963Z,7.62
2019-04-10T10:00:56.535Z,8.35
2019-04-10T10:03:28.251Z,11.45
2019-04-10T10:06:00.292Z,11.78
2019-04-10T10:08:33.815Z,10.08
2019-04-10T10:11:06.385Z,10.98
2019-04-10T10:13:39.437Z,11.48
2019-04-10T10:16:11.095Z,13.30
2019-04-10T10:18:43.667Z,12.43
2019-04-10T10:21:16.519Z,12.30
2019-04-10T10:23:48.570Z,11.53
2019-04-10T10:26:22.166Z,8.33
2019-04-10T10:28:54.589Z,7.10
2019-04-10T10:31:28.426Z,6.50
2019-04-10T10:34:00.308Z,6.30
2019-04-10T10:36:40.703Z,7.08
2019-04-10T10:39:12.957Z,6.75
2019-04-10T10:41:44.712Z,7.58
2019-04-10T10:44:17.383Z,7.30
2019-04-10T10:46:49.526Z,8.75
2019-04-10T10:49:21.206Z,9.75
2019-04-10T10:51:53.317Z,9.85
2019-04-10T10:54:26.804Z,8.08
2019-04-10T10:56:58.536Z,7.00
2019-04-10T10:59:29.983Z,7.20
2019-04-10T11:02:02.359Z,7.60
2019-04-10T11:04:34.052Z,7.05
2019-04-10T11:07:06.892Z,6.83
2019-04-10T11:09:40.216Z,7.40
2019-04-10T11:12:13.598Z,17.82
2019-04-10T11:14:48.181Z,6.95
2019-04-10T11:17:20.005Z,7.17
2019-04-10T11:19:51.441Z,7.28
2019-04-10T11:24:57.535Z,7.35
2019-04-10T11:27:29.493Z,6.60
2019-04-10T11:30:01.448Z,6.65
2019-04-10T11:32:36.606Z,6.23
2019-04-10T11:35:08.738Z,6.22
2019-04-10T11:37:44.856Z,6.67
2019-04-10T11:40:15.817Z,6.78
2019-04-10T11:42:47.815Z,6.37
2019-04-10T11:45:19.323Z,6.28
2019-04-10T11:47:52.837Z,6.78
2019-04-10T11:50:25.578Z,6.17
2019-04-10T11:53:00.361Z,6.67
2019-04-10T11:55:35.425Z,6.15
2019-04-10T11:58:05.657Z,6.42
2019-04-10T12:00:50.501Z,7.20
2019-04-10T12:03:15.910Z,7.25
2019-04-10T12:05:51.002Z,6.67
2019-04-10T12:08:44.730Z,6.58
2019-04-10T12:13:28.328Z,6.60
2019-04-10T12:16:00.972Z,6.75
2019-04-10T12:18:33.267Z,6.72
2019-04-10T12:21:05.237Z,7.20
2019-04-10T12:23:36.956Z,6.67
2019-04-10T12:26:09.555Z,6.75
2019-04-10T12:28:42.320Z,5.75
2019-04-10T12:31:14.075Z,6.47
2019-04-10T12:33:46.543Z,6.00
2019-04-10T12:36:20.447Z,5.75
2019-04-10T12:38:54.095Z,5.53
2019-04-10T12:41:25.676Z,7.08
2019-04-10T12:43:57.155Z,6.62
2019-04-10T12:46:28.942Z,6.17
2019-04-10T12:49:02.239Z,5.87
2019-04-10T12:51:34.855Z,6.17
2019-04-10T12:54:07.664Z,6.30
2019-04-10T12:56:40.177Z,6.12
2019-04-10T12:59:12.044Z,6.30
2019-04-10T13:01:45.144Z,6.00
2019-04-10T13:04:17.912Z,5.90
2019-04-10T13:06:52.602Z,6.20
2019-04-10T13:09:24.252Z,6.50
2019-04-10T13:11:56.532Z,6.50
2019-04-10T13:14:29.283Z,6.15
2019-04-10T13:17:00.912Z,5.80
2019-04-10T13:19:34.135Z,5.80
2019-04-10T13:22:05.548Z,5.70
2019-04-10T13:24:37.558Z,6.20
2019-04-10T13:27:10.366Z,5.55
2019-04-10T13:29:42.708Z,6.10
2019-04-10T13:32:14.183Z,5.62
2019-04-10T13:34:45.825Z,7.30
2019-04-10T13:37:17.987Z,6.92
2019-04-10T13:39:50.885Z,6.55
2019-04-10T13:42:23.143Z,6.92
2019-04-10T13:44:55.740Z,6.40
2019-04-10T13:47:29.109Z,5.83
2019-04-10T13:50:00.624Z,4.17
2019-04-10T13:52:32.224Z,5.40
2019-04-10T13:55:05.195Z,6.62
2019-04-10T13:57:36.991Z,5.80
2019-04-10T14:00:11.380Z,7.20
2019-04-10T14:02:43.337Z,6.05
2019-04-10T14:05:17.796Z,5.90
2019-04-10T14:07:49.481Z,6.12
2019-04-10T14:10:21.090Z,6.22
2019-04-10T14:12:53.475Z,8.40
2019-04-10T14:15:27.224Z,6.30
2019-04-10T14:17:59.818Z,6.15
2019-04-10T14:20:31.695Z,6.22
2019-04-10T14:23:10.639Z,5.92
2019-04-10T14:26:02.229Z,6.58
2019-04-10T14:28:36.150Z,8.38
2019-04-10T14:31:11.867Z,9.28
2019-04-10T14:33:44.792Z,11.45
2019-04-10T14:36:16.662Z,8.65
2019-04-10T14:38:49.872Z,8.30
2019-04-10T14:41:22.148Z,8.45
2019-04-10T14:43:56.249Z,9.03
2019-04-10T14:46:28.875Z,8.43
2019-04-10T14:49:00.667Z,7.50
2019-04-10T14:51:34.710Z,5.87
2019-04-10T14:54:06.442Z,6.20
2019-04-10T14:56:38.120Z,7.03
2019-04-10T14:59:09.624Z,8.10
2019-04-10T15:01:42.036Z,7.42
2019-04-10T15:04:13.556Z,7.67
2019-04-10T15:06:45.836Z,7.65
2019-04-10T15:09:25.354Z,6.92
2019-04-10T15:11:53.584Z,7.58
2019-04-10T15:14:25.995Z,7.40
2019-04-10T15:17:02.652Z,7.67
2019-04-10T15:19:34.195Z,7.70
2019-04-10T15:22:05.941Z,9.48
2019-04-10T15:24:37.680Z,9.95
2019-04-10T15:27:11.561Z,13.70
2019-04-10T15:29:49.061Z,11.45
2019-04-10T15:32:22.969Z,9.73
2019-04-10T15:34:55.851Z,10.13
2019-04-10T15:37:31.242Z,10.72
2019-04-10T15:42:40.549Z,9.75
2019-04-10T15:45:12.838Z,10.03
2019-04-10T15:47:52.498Z,9.53
2019-04-10T15:50:26.568Z,10.88
2019-04-10T15:53:04.081Z,13.88
2019-04-10T15:55:36.068Z,11.78
2019-04-10T15:58:11.861Z,10.43
2019-04-10T16:00:47.726Z,8.83
2019-04-10T16:03:21.836Z,7.28
2019-04-10T16:05:57.734Z,7.85
2019-04-10T16:08:32.401Z,6.92
2019-04-10T16:11:12.124Z,7.75
2019-04-10T16:13:46.401Z,8.48
2019-04-10T16:16:34.835Z,8.27
2019-04-10T16:19:16.232Z,7.47
2019-04-10T16:21:58.295Z,8.50
2019-04-10T16:24:31.252Z,8.38
2019-04-10T16:27:03.466Z,7.25
2019-04-10T16:29:36.516Z,7.55
2019-04-10T16:32:10.707Z,7.53
2019-04-10T16:34:44.764Z,8.60
2019-04-10T16:37:16.725Z,9.43
2019-04-10T16:39:58.596Z,9.50
2019-04-10T16:42:26.673Z,9.53
2019-04-10T16:45:03.948Z,9.98
2019-04-10T16:47:32.376Z,9.90
2019-04-10T16:50:09.157Z,9.58
2019-04-10T16:52:41.034Z,9.33
2019-04-10T16:55:12.511Z,10.20
2019-04-10T16:57:45.322Z,8.95
2019-04-10T17:00:19.511Z,9.13
2019-04-10T17:02:52.732Z,9.33
2019-04-10T17:05:24.793Z,9.75
2019-04-10T17:07:59.228Z,9.10
2019-04-10T17:10:30.917Z,9.15
2019-04-10T17:13:02.502Z,9.73
2019-04-10T17:15:34.382Z,9.43
2019-04-10T17:18:08.607Z,9.70
2019-04-10T17:20:40.539Z,12.40
2019-04-10T17:23:12.426Z,10.53
2019-04-10T17:25:44.473Z,9.23
2019-04-10T17:28:16.460Z,9.70
2019-04-10T17:30:49.653Z,8.88
2019-04-10T17:33:21.258Z,10.13
2019-04-10T17:35:55.996Z,9.40
2019-04-10T17:38:28.710Z,9.65
2019-04-10T17:41:03.821Z,9.13
2019-04-10T17:43:35.091Z,11.80
2019-04-10T17:46:07.239Z,11.88
2019-04-10T17:48:41.993Z,10.10
2019-04-10T17:51:15.601Z,10.45
2019-04-10T17:53:47.441Z,11.38
2019-04-10T17:56:20.106Z,12.25
2019-04-10T17:58:54.047Z,13.35
2019-04-10T18:01:27.151Z,16.73
2019-04-10T18:04:02.982Z,16.82
2019-04-10T18:06:33.287Z,16.40
2019-04-10T18:09:07.835Z,16.15
2019-04-10T18:14:11.274Z,15.35
2019-04-10T18:16:44.199Z,14.10
2019-04-10T18:19:19.184Z,13.62
2019-04-10T18:21:51.008Z,17.27
2019-04-10T18:24:22.747Z,18.65
2019-04-10T18:26:56.598Z,28.15
2019-04-10T18:29:27.797Z,20.57
2019-04-10T18:32:00.915Z,17.77
2019-04-10T18:34:35.576Z,17.55
2019-04-10T18:37:11.078Z,16.65
2019-04-10T18:39:43.348Z,15.48
2019-04-10T18:42:14.939Z,16.97
2019-04-10T18:44:46.951Z,15.78
2019-04-10T18:47:18.704Z,15.75
2019-04-10T18:49:50.424Z,16.50
2019-04-10T18:52:23.357Z,16.60
2019-04-10T18:54:56.935Z,16.97
2019-04-10T18:57:30.486Z,16.65
2019-04-10T19:00:21.908Z,16.50
2019-04-10T19:03:15.090Z,17.02
2019-04-10T19:05:48.398Z,15.72
2019-04-10T19:08:20.060Z,16.82
2019-04-10T19:11:07.635Z,17.02
2019-04-10T19:13:28.652Z,17.57
2019-04-10T19:16:01.363Z,18.15
2019-04-10T19:18:35.502Z,16.67
2019-04-10T19:21:07.636Z,15.28
2019-04-10T19:23:39.399Z,15.95
2019-04-10T19:26:13.927Z,16.05
2019-04-10T19:28:46.581Z,16.73
2019-04-10T19:31:24.002Z,16.62
2019-04-10T19:33:54.869Z,17.30
2019-04-10T19:36:27.985Z,16.65
2019-04-10T19:39:00.099Z,16.55
2019-04-10T19:41:37.883Z,16.27
2019-04-10T19:44:09.242Z,16.95
2019-04-10T19:46:42.421Z,16.32
2019-04-10T19:49:16.285Z,16.60
2019-04-10T19:51:48.763Z,15.85
2019-04-10T19:54:20.538Z,15.10
2019-04-10T19:56:52.993Z,16.95
2019-04-10T19:59:27.310Z,16.23
2019-04-10T20:02:00.312Z,16.70
2019-04-10T20:04:32.503Z,15.80
2019-04-10T20:07:04.859Z,16.48
2019-04-10T20:09:36.948Z,17.92
2019-04-10T20:12:08.797Z,17.00
2019-04-10T20:14:40.913Z,17.50
2019-04-10T20:17:13.540Z,18.17
2019-04-10T20:19:46.659Z,18.10
2019-04-10T20:22:18.902Z,19.20
2019-04-10T20:24:51.925Z,18.67
2019-04-10T20:27:23.764Z,18.30
2019-04-10T20:29:55.438Z,18.60
2019-04-10T20:32:28.062Z,20.88
2019-04-10T20:35:00.120Z,19.90
2019-04-10T20:37:32.953Z,19.65
2019-04-10T20:40:06.188Z,20.17
2019-04-10T20:42:38.278Z,21.33
2019-04-10T20:45:11.612Z,20.35
2019-04-10T20:47:43.499Z,20.23
2019-04-10T20:50:15.428Z,20.68
2019-04-10T20:52:47.339Z,19.85
2019-04-10T20:55:19.568Z,20.43
2019-04-10T20:57:52.097Z,20.92
2019-04-10T21:00:32.190Z,21.35
2019-04-10T21:03:04.146Z,20.75
2019-04-10T21:05:35.956Z,21.25
2019-04-10T21:08:07.518Z,21.55
2019-04-10T21:10:39.323Z,20.88
2019-04-10T21:13:10.947Z,22.15
2019-04-10T21:15:42.588Z,21.65
2019-04-10T21:18:15.236Z,22.37
2019-04-10T21:20:47.314Z,22.67
2019-04-10T21:23:19.406Z,22.05
2019-04-10T21:25:51.880Z,23.20
2019-04-10T21:28:23.853Z,22.93
2019-04-10T21:31:03.106Z,23.32
2019-04-10T21:33:52.698Z,22.45
2019-04-10T21:36:24.312Z,22.17
2019-04-10T21:38:56.679Z,21.70
2019-04-10T21:41:30.623Z,21.27
2019-04-10T21:44:02.545Z,20.95
2019-04-10T21:46:34.668Z,20.27
2019-04-10T21:49:06.291Z,22.35
2019-04-10T21:51:37.923Z,21.10
2019-04-10T21:54:09.926Z,21.05
2019-04-10T21:56:41.539Z,20.45
2019-04-10T21:59:15.930Z,21.48
2019-04-10T22:01:48.665Z,20.12
2019-04-10T22:04:21.137Z,19.95
2019-04-10T22:06:54.354Z,20.17
2019-04-10T22:09:30.581Z,20.70
2019-04-10T22:12:03.942Z,20.62
2019-04-10T22:14:35.617Z,20.70
2019-04-10T22:17:08.774Z,21.20
2019-04-10T22:19:41.002Z,21.77
2019-04-10T22:22:12.873Z,21.07
2019-04-10T22:24:44.647Z,20.55
2019-04-10T22:27:17.045Z,20.77
2019-04-10T22:29:48.903Z,21.40
2019-04-10T22:32:20.639Z,21.50
2019-04-10T22:34:52.819Z,20.17
2019-04-10T22:37:25.657Z,20.50
2019-04-10T22:39:58.627Z,21.85
2019-04-10T22:42:39.993Z,20.02
2019-04-10T22:45:05.308Z,21.42
2019-04-10T22:47:39.249Z,20.55
2019-04-10T22:50:11.049Z,21.10
2019-04-10T22:52:42.704Z,20.50
2019-04-10T22:55:14.283Z,19.77
2019-04-10T22:57:46.392Z,20.08
2019-04-10T23:00:24.298Z,19.23
2019-04-10T23:02:57.386Z,18.73
2019-04-10T23:05:29.607Z,19.40
2019-04-10T23:08:01.313Z,19.65
2019-04-10T23:10:33.276Z,19.12
2019-04-10T23:13:07.050Z,18.98
2019-04-10T23:15:39.743Z,17.98
2019-04-10T23:18:12.938Z,18.42
2019-04-10T23:20:44.832Z,18.37
2019-04-10T23:23:16.911Z,18.52
2019-04-10T23:25:48.842Z,17.60
2019-04-10T23:28:20.578Z,18.55
2019-04-10T23:30:52.954Z,17.92
2019-04-10T23:33:24.686Z,17.65
2019-04-10T23:35:56.176Z,18.15
2019-04-10T23:38:31.191Z,19.17
2019-04-10T23:41:03.232Z,18.60
2019-04-10T23:43:35.672Z,17.77
2019-04-10T23:46:08.348Z,17.95
2019-04-10T23:48:41.224Z,17.05
2019-04-10T23:51:12.998Z,17.42
2019-04-10T23:53:44.812Z,15.90
2019-04-10T23:56:17.688Z,16.30
2019-04-10T23:58:49.317Z,17.20
